sensor_id;sensor_type;location;lat;lon;timestamp;pressure;altitude;pressure_sealevel;temperature;humidity
73870;BME280;64924;42.140;24.762;2023-04-30T00:02:13;99357.69;;;17.43;42.58
73870;BME280;64924;42.140;24.762;2023-04-30T00:04:38;99353.34;;;17.47;42.50
73870;BME280;64924;42.140;24.762;2023-04-30T00:07:04;99342.88;;;17.44;42.81
73870;BME280;64924;42.140;24.762;2023-04-30T00:09:29;99346.84;;;17.53;42.70
73870;BME280;64924;42.140;24.762;2023-04-30T00:11:55;99348.78;;;17.52;42.48
73870;BME280;64924;42.140;24.762;2023-04-30T00:14:20;99312.13;;;17.30;42.54
73870;BME280;64924;42.140;24.762;2023-04-30T00:16:46;99347.53;;;17.60;42.30
73870;BME280;64924;42.140;24.762;2023-04-30T00:19:11;99316.06;;;17.51;41.72
73870;BME280;64924;42.140;24.762;2023-04-30T00:21:37;99334.75;;;17.65;41.57
73870;BME280;64924;42.140;24.762;2023-04-30T00:24:02;99354.56;;;17.67;41.32
73870;BME280;64924;42.140;24.762;2023-04-30T00:26:28;99275.44;;;17.19;41.45
73870;BME280;64924;42.140;24.762;2023-04-30T00:28:53;99333.66;;;17.66;41.45
73870;BME280;64924;42.140;24.762;2023-04-30T00:31:19;99351.94;;;17.61;41.56
73870;BME280;64924;42.140;24.762;2023-04-30T00:33:44;99342.44;;;17.52;41.20
73870;BME280;64924;42.140;24.762;2023-04-30T00:36:10;99352.00;;;17.49;41.44
73870;BME280;64924;42.140;24.762;2023-04-30T00:38:35;99346.19;;;17.46;43.01
73870;BME280;64924;42.140;24.762;2023-04-30T00:41:01;99357.94;;;17.41;43.24
73870;BME280;64924;42.140;24.762;2023-04-30T00:43:26;99358.44;;;17.38;43.06
73870;BME280;64924;42.140;24.762;2023-04-30T00:45:52;99359.50;;;17.37;43.17
73870;BME280;64924;42.140;24.762;2023-04-30T00:48:17;99356.59;;;17.44;42.91
73870;BME280;64924;42.140;24.762;2023-04-30T00:50:43;99321.72;;;17.27;42.93
73870;BME280;64924;42.140;24.762;2023-04-30T00:53:10;99345.03;;;17.42;42.52
73870;BME280;64924;42.140;24.762;2023-04-30T00:55:36;99340.88;;;17.39;42.52
73870;BME280;64924;42.140;24.762;2023-04-30T00:58:02;99344.69;;;17.55;42.08
73870;BME280;64924;42.140;24.762;2023-04-30T01:00:28;99341.19;;;17.59;42.17
73870;BME280;64924;42.140;24.762;2023-04-30T01:02:54;99340.81;;;17.67;42.08
73870;BME280;64924;42.140;24.762;2023-04-30T01:05:21;99335.97;;;17.58;41.14
73870;BME280;64924;42.140;24.762;2023-04-30T01:07:47;99344.69;;;17.55;41.15
73870;BME280;64924;42.140;24.762;2023-04-30T01:10:14;99346.69;;;17.43;41.78
73870;BME280;64924;42.140;24.762;2023-04-30T01:12:55;99332.97;;;17.43;41.34
73870;BME280;64924;42.140;24.762;2023-04-30T01:18:32;99345.78;;;17.09;41.80
73870;BME280;64924;42.140;24.762;2023-04-30T01:21:06;99332.22;;;17.02;41.57
73870;BME280;64924;42.140;24.762;2023-04-30T01:29:23;99335.06;;;16.79;40.76
73870;BME280;64924;42.140;24.762;2023-04-30T01:31:49;99336.97;;;16.78;40.08
73870;BME280;64924;42.140;24.762;2023-04-30T01:34:14;99341.03;;;16.76;39.81
73870;BME280;64924;42.140;24.762;2023-04-30T01:43:01;99350.81;;;16.71;39.66
73870;BME280;64924;42.140;24.762;2023-04-30T01:51:39;99330.47;;;16.96;40.34
73870;BME280;64924;42.140;24.762;2023-04-30T01:56:52;99296.06;;;16.77;41.17
73870;BME280;64924;42.140;24.762;2023-04-30T01:59:20;99328.56;;;16.96;40.83
73870;BME280;64924;42.140;24.762;2023-04-30T02:01:47;99334.38;;;17.00;41.09
73870;BME280;64924;42.140;24.762;2023-04-30T02:04:12;99330.81;;;16.99;41.19
73870;BME280;64924;42.140;24.762;2023-04-30T02:06:38;99321.84;;;17.04;41.20
73870;BME280;64924;42.140;24.762;2023-04-30T02:09:05;99282.69;;;16.80;41.09
73870;BME280;64924;42.140;24.762;2023-04-30T02:11:31;99332.50;;;17.17;41.19
73870;BME280;64924;42.140;24.762;2023-04-30T02:13:56;99329.31;;;17.09;40.89
73870;BME280;64924;42.140;24.762;2023-04-30T02:16:22;99318.50;;;17.02;40.92
73870;BME280;64924;42.140;24.762;2023-04-30T02:18:48;99323.31;;;16.95;41.04
73870;BME280;64924;42.140;24.762;2023-04-30T02:21:14;99326.66;;;16.97;41.06
73870;BME280;64924;42.140;24.762;2023-04-30T02:23:39;99327.97;;;16.94;40.60
73870;BME280;64924;42.140;24.762;2023-04-30T02:26:06;99327.75;;;16.84;40.77
73870;BME280;64924;42.140;24.762;2023-04-30T02:28:31;99329.91;;;16.82;40.59
73870;BME280;64924;42.140;24.762;2023-04-30T02:30:57;99317.41;;;16.75;40.71
73870;BME280;64924;42.140;24.762;2023-04-30T02:33:22;99329.41;;;16.68;40.38
73870;BME280;64924;42.140;24.762;2023-04-30T02:35:48;99332.31;;;16.79;40.25
73870;BME280;64924;42.140;24.762;2023-04-30T02:38:13;99331.25;;;16.80;40.47
73870;BME280;64924;42.140;24.762;2023-04-30T02:40:40;99321.94;;;16.81;40.08
73870;BME280;64924;42.140;24.762;2023-04-30T02:43:06;99286.34;;;16.57;39.86
73870;BME280;64924;42.140;24.762;2023-04-30T02:45:32;99329.28;;;16.92;39.83
73870;BME280;64924;42.140;24.762;2023-04-30T02:47:57;99327.03;;;16.89;39.37
73870;BME280;64924;42.140;24.762;2023-04-30T02:50:23;99308.38;;;16.62;39.51
73870;BME280;64924;42.140;24.762;2023-04-30T02:52:49;99295.31;;;16.41;39.66
73870;BME280;64924;42.140;24.762;2023-04-30T02:55:14;99264.03;;;16.25;40.02
73870;BME280;64924;42.140;24.762;2023-04-30T02:57:40;99306.59;;;16.56;39.71
73870;BME280;64924;42.140;24.762;2023-04-30T03:00:06;99267.78;;;16.36;39.60
73870;BME280;64924;42.140;24.762;2023-04-30T03:02:32;99329.97;;;16.70;39.69
73870;BME280;64924;42.140;24.762;2023-04-30T03:04:57;99337.69;;;16.74;39.31
73870;BME280;64924;42.140;24.762;2023-04-30T03:07:23;99316.75;;;16.56;39.38
73870;BME280;64924;42.140;24.762;2023-04-30T03:09:48;99292.81;;;16.39;39.71
73870;BME280;64924;42.140;24.762;2023-04-30T03:12:14;99300.56;;;16.43;39.57
73870;BME280;64924;42.140;24.762;2023-04-30T03:14:40;99338.53;;;16.74;39.53
73870;BME280;64924;42.140;24.762;2023-04-30T03:17:05;99340.06;;;16.82;39.33
73870;BME280;64924;42.140;24.762;2023-04-30T03:19:31;99341.94;;;16.93;39.63
73870;BME280;64924;42.140;24.762;2023-04-30T03:21:57;99332.63;;;16.94;39.56
73870;BME280;64924;42.140;24.762;2023-04-30T03:24:22;99337.72;;;17.02;39.59
73870;BME280;64924;42.140;24.762;2023-04-30T03:26:49;99340.56;;;17.07;39.62
73870;BME280;64924;42.140;24.762;2023-04-30T03:29:15;99342.88;;;17.15;40.45
73870;BME280;64924;42.140;24.762;2023-04-30T03:31:41;99343.63;;;17.11;41.63
73870;BME280;64924;42.140;24.762;2023-04-30T03:34:06;99346.13;;;17.12;41.99
73870;BME280;64924;42.140;24.762;2023-04-30T03:36:32;99363.78;;;17.16;42.36
73870;BME280;64924;42.140;24.762;2023-04-30T03:38:58;99353.28;;;17.13;42.99
73870;BME280;64924;42.140;24.762;2023-04-30T03:41:24;99319.63;;;16.89;43.69
73870;BME280;64924;42.140;24.762;2023-04-30T03:43:49;99325.13;;;16.89;43.96
73870;BME280;64924;42.140;24.762;2023-04-30T03:46:15;99375.00;;;17.15;44.20
73870;BME280;64924;42.140;24.762;2023-04-30T03:48:40;99378.34;;;17.17;44.67
73870;BME280;64924;42.140;24.762;2023-04-30T03:51:06;99379.75;;;17.19;44.60
73870;BME280;64924;42.140;24.762;2023-04-30T03:53:31;99377.00;;;17.19;44.85
73870;BME280;64924;42.140;24.762;2023-04-30T03:55:57;99331.31;;;16.96;44.02
73870;BME280;64924;42.140;24.762;2023-04-30T03:58:24;99387.41;;;17.17;43.67
73870;BME280;64924;42.140;24.762;2023-04-30T04:00:50;99372.59;;;17.18;44.00
73870;BME280;64924;42.140;24.762;2023-04-30T04:03:15;99383.69;;;17.23;44.03
73870;BME280;64924;42.140;24.762;2023-04-30T04:05:41;99370.78;;;17.24;44.10
73870;BME280;64924;42.140;24.762;2023-04-30T04:08:06;99381.03;;;17.28;44.19
73870;BME280;64924;42.140;24.762;2023-04-30T04:10:33;99377.81;;;17.31;43.93
73870;BME280;64924;42.140;24.762;2023-04-30T04:12:59;99383.97;;;17.38;44.36
73870;BME280;64924;42.140;24.762;2023-04-30T04:15:25;99386.38;;;17.35;44.99
73870;BME280;64924;42.140;24.762;2023-04-30T04:17:50;99397.22;;;17.42;45.14
73870;BME280;64924;42.140;24.762;2023-04-30T04:20:16;99347.19;;;17.11;44.83
73870;BME280;64924;42.140;24.762;2023-04-30T04:22:42;99394.38;;;17.36;45.11
73870;BME280;64924;42.140;24.762;2023-04-30T04:25:08;99393.44;;;17.31;45.19
73870;BME280;64924;42.140;24.762;2023-04-30T04:27:34;99398.53;;;17.39;45.43
73870;BME280;64924;42.140;24.762;2023-04-30T04:30:01;99390.44;;;17.32;45.78
73870;BME280;64924;42.140;24.762;2023-04-30T04:32:26;99398.63;;;17.44;45.52
73870;BME280;64924;42.140;24.762;2023-04-30T04:34:53;99402.13;;;17.40;45.44
73870;BME280;64924;42.140;24.762;2023-04-30T04:37:19;99394.47;;;17.42;45.60
73870;BME280;64924;42.140;24.762;2023-04-30T04:39:45;99386.53;;;17.45;45.32
73870;BME280;64924;42.140;24.762;2023-04-30T04:42:10;99393.66;;;17.58;45.40
73870;BME280;64924;42.140;24.762;2023-04-30T04:44:36;99384.19;;;17.65;45.11
73870;BME280;64924;42.140;24.762;2023-04-30T04:47:02;99390.47;;;17.78;44.74
73870;BME280;64924;42.140;24.762;2023-04-30T04:49:28;99397.53;;;17.90;44.40
73870;BME280;64924;42.140;24.762;2023-04-30T04:51:54;99389.63;;;18.11;43.97
73870;BME280;64924;42.140;24.762;2023-04-30T04:54:19;99377.78;;;18.49;43.10
73870;BME280;64924;42.140;24.762;2023-04-30T04:56:45;99390.28;;;19.00;42.16
73870;BME280;64924;42.140;24.762;2023-04-30T04:59:12;99402.19;;;19.27;41.89
73870;BME280;64924;42.140;24.762;2023-04-30T05:01:37;99389.69;;;19.47;41.22
73870;BME280;64924;42.140;24.762;2023-04-30T05:04:03;99355.38;;;19.32;41.32
73870;BME280;64924;42.140;24.762;2023-04-30T05:06:28;99395.31;;;20.21;39.97
73870;BME280;64924;42.140;24.762;2023-04-30T05:08:54;99369.44;;;21.77;36.89
73870;BME280;64924;42.140;24.762;2023-04-30T05:11:20;99400.59;;;23.83;33.58
73870;BME280;64924;42.140;24.762;2023-04-30T05:13:46;99401.00;;;24.87;31.70
73870;BME280;64924;42.140;24.762;2023-04-30T05:16:12;99398.56;;;25.47;30.83
73870;BME280;64924;42.140;24.762;2023-04-30T05:18:37;99392.84;;;25.76;30.08
73870;BME280;64924;42.140;24.762;2023-04-30T05:21:03;99386.13;;;26.60;28.86
73870;BME280;64924;42.140;24.762;2023-04-30T05:23:28;99390.75;;;27.83;26.69
73870;BME280;64924;42.140;24.762;2023-04-30T05:25:54;99383.22;;;28.68;25.73
73870;BME280;64924;42.140;24.762;2023-04-30T05:28:19;99390.91;;;29.85;24.38
73870;BME280;64924;42.140;24.762;2023-04-30T05:30:45;99390.56;;;30.30;23.05
73870;BME280;64924;42.140;24.762;2023-04-30T05:33:10;99398.00;;;29.56;23.47
73870;BME280;64924;42.140;24.762;2023-04-30T05:35:36;99375.41;;;29.44;24.07
73870;BME280;64924;42.140;24.762;2023-04-30T05:38:02;99382.84;;;29.75;24.03
73870;BME280;64924;42.140;24.762;2023-04-30T05:40:28;99397.22;;;30.72;22.93
73870;BME280;64924;42.140;24.762;2023-04-30T05:42:54;99388.59;;;31.44;22.16
73870;BME280;64924;42.140;24.762;2023-04-30T05:45:20;99383.25;;;32.14;21.49
73870;BME280;64924;42.140;24.762;2023-04-30T05:47:46;99387.28;;;32.58;20.98
73870;BME280;64924;42.140;24.762;2023-04-30T05:50:11;99383.81;;;32.07;21.02
73870;BME280;64924;42.140;24.762;2023-04-30T05:52:37;99369.75;;;32.40;20.51
73870;BME280;64924;42.140;24.762;2023-04-30T05:55:02;99380.06;;;32.81;20.12
73870;BME280;64924;42.140;24.762;2023-04-30T05:57:28;99358.47;;;33.10;19.71
73870;BME280;64924;42.140;24.762;2023-04-30T05:59:54;99377.63;;;33.81;18.70
73870;BME280;64924;42.140;24.762;2023-04-30T06:02:19;99386.75;;;34.46;18.14
73870;BME280;64924;42.140;24.762;2023-04-30T06:04:44;99375.72;;;34.84;17.07
73870;BME280;64924;42.140;24.762;2023-04-30T06:07:11;99395.00;;;34.98;17.23
73870;BME280;64924;42.140;24.762;2023-04-30T06:09:37;99366.66;;;35.10;17.20
73870;BME280;64924;42.140;24.762;2023-04-30T06:12:03;99392.53;;;35.12;17.27
73870;BME280;64924;42.140;24.762;2023-04-30T06:14:28;99389.22;;;35.42;17.09
73870;BME280;64924;42.140;24.762;2023-04-30T06:16:54;99387.97;;;35.94;16.33
73870;BME280;64924;42.140;24.762;2023-04-30T06:19:19;99353.78;;;36.22;15.93
73870;BME280;64924;42.140;24.762;2023-04-30T06:21:45;99390.53;;;36.83;15.80
73870;BME280;64924;42.140;24.762;2023-04-30T06:24:10;99384.66;;;36.49;16.14
73870;BME280;64924;42.140;24.762;2023-04-30T06:26:36;99386.94;;;35.32;16.75
73870;BME280;64924;42.140;24.762;2023-04-30T06:29:02;99395.81;;;34.99;17.32
73870;BME280;64924;42.140;24.762;2023-04-30T06:31:27;99389.72;;;34.97;17.61
73870;BME280;64924;42.140;24.762;2023-04-30T06:33:53;99392.56;;;34.81;18.06
73870;BME280;64924;42.140;24.762;2023-04-30T06:36:18;99386.78;;;35.09;17.72
73870;BME280;64924;42.140;24.762;2023-04-30T06:38:45;99383.00;;;35.52;17.25
73870;BME280;64924;42.140;24.762;2023-04-30T06:41:13;99393.41;;;35.83;16.95
73870;BME280;64924;42.140;24.762;2023-04-30T06:43:40;99376.84;;;36.04;16.85
73870;BME280;64924;42.140;24.762;2023-04-30T06:46:05;99384.59;;;36.07;17.02
73870;BME280;64924;42.140;24.762;2023-04-30T06:48:31;99382.75;;;35.41;17.25
73870;BME280;64924;42.140;24.762;2023-04-30T06:50:57;99376.91;;;35.50;17.49
73870;BME280;64924;42.140;24.762;2023-04-30T06:53:23;99372.75;;;35.63;17.33
73870;BME280;64924;42.140;24.762;2023-04-30T06:55:49;99379.06;;;35.76;16.96
73870;BME280;64924;42.140;24.762;2023-04-30T06:58:15;99377.41;;;36.29;16.43
73870;BME280;64924;42.140;24.762;2023-04-30T07:00:41;99371.13;;;36.62;16.66
73870;BME280;64924;42.140;24.762;2023-04-30T07:03:06;99366.09;;;36.29;16.65
73870;BME280;64924;42.140;24.762;2023-04-30T07:05:32;99365.66;;;35.73;17.38
73870;BME280;64924;42.140;24.762;2023-04-30T07:08:00;99341.00;;;35.89;17.19
73870;BME280;64924;42.140;24.762;2023-04-30T07:10:26;99366.53;;;36.31;16.79
73870;BME280;64924;42.140;24.762;2023-04-30T07:12:52;99370.81;;;36.25;16.56
73870;BME280;64924;42.140;24.762;2023-04-30T07:15:17;99368.91;;;36.10;16.85
73870;BME280;64924;42.140;24.762;2023-04-30T07:17:43;99367.25;;;36.09;16.79
73870;BME280;64924;42.140;24.762;2023-04-30T07:20:09;99368.69;;;35.45;17.18
73870;BME280;64924;42.140;24.762;2023-04-30T07:22:34;99353.09;;;34.25;18.32
73870;BME280;64924;42.140;24.762;2023-04-30T07:25:00;99356.31;;;33.96;18.57
73870;BME280;64924;42.140;24.762;2023-04-30T07:27:26;99370.25;;;34.04;18.16
73870;BME280;64924;42.140;24.762;2023-04-30T07:29:53;99369.09;;;34.21;17.86
73870;BME280;64924;42.140;24.762;2023-04-30T07:32:20;99371.91;;;34.65;17.44
73870;BME280;64924;42.140;24.762;2023-04-30T07:34:46;99324.56;;;35.05;17.20
73870;BME280;64924;42.140;24.762;2023-04-30T07:37:11;99356.81;;;34.73;17.40
73870;BME280;64924;42.140;24.762;2023-04-30T07:39:37;99364.00;;;34.11;17.82
73870;BME280;64924;42.140;24.762;2023-04-30T07:42:03;99367.59;;;33.96;18.48
73870;BME280;64924;42.140;24.762;2023-04-30T07:44:29;99325.69;;;33.42;18.68
73870;BME280;64924;42.140;24.762;2023-04-30T07:46:55;99367.06;;;33.78;18.84
73870;BME280;64924;42.140;24.762;2023-04-30T07:49:20;99355.28;;;33.23;18.74
73870;BME280;64924;42.140;24.762;2023-04-30T07:51:46;99376.03;;;32.58;19.57
73870;BME280;64924;42.140;24.762;2023-04-30T07:54:12;99356.78;;;32.60;19.04
73870;BME280;64924;42.140;24.762;2023-04-30T07:56:37;99361.06;;;32.91;19.42
73870;BME280;64924;42.140;24.762;2023-04-30T07:59:04;99364.56;;;33.24;18.94
73870;BME280;64924;42.140;24.762;2023-04-30T08:01:29;99364.59;;;33.76;18.25
73870;BME280;64924;42.140;24.762;2023-04-30T08:03:55;99356.38;;;34.27;17.57
73870;BME280;64924;42.140;24.762;2023-04-30T08:06:20;99359.22;;;34.87;17.20
73870;BME280;64924;42.140;24.762;2023-04-30T08:08:46;99330.69;;;34.76;17.14
73870;BME280;64924;42.140;24.762;2023-04-30T08:11:12;99355.28;;;34.91;16.96
73870;BME280;64924;42.140;24.762;2023-04-30T08:13:38;99345.06;;;34.55;17.36
73870;BME280;64924;42.140;24.762;2023-04-30T08:16:03;99338.34;;;34.44;17.24
73870;BME280;64924;42.140;24.762;2023-04-30T08:18:29;99345.53;;;33.85;17.47
73870;BME280;64924;42.140;24.762;2023-04-30T08:20:56;99345.56;;;33.09;18.20
73870;BME280;64924;42.140;24.762;2023-04-30T08:23:22;99316.13;;;32.94;18.05
73870;BME280;64924;42.140;24.762;2023-04-30T08:25:47;99348.63;;;33.28;18.12
73870;BME280;64924;42.140;24.762;2023-04-30T08:28:12;99337.94;;;32.61;18.30
73870;BME280;64924;42.140;24.762;2023-04-30T08:30:38;99334.09;;;32.32;18.65
73870;BME280;64924;42.140;24.762;2023-04-30T08:33:04;99347.03;;;32.45;18.62
73870;BME280;64924;42.140;24.762;2023-04-30T08:35:29;99339.78;;;32.56;18.72
73870;BME280;64924;42.140;24.762;2023-04-30T08:37:55;99344.50;;;32.65;18.45
73870;BME280;64924;42.140;24.762;2023-04-30T08:40:20;99283.78;;;32.64;17.93
73870;BME280;64924;42.140;24.762;2023-04-30T08:42:55;99326.81;;;33.01;17.77
73870;BME280;64924;42.140;24.762;2023-04-30T08:45:24;99331.84;;;32.95;17.72
73870;BME280;64924;42.140;24.762;2023-04-30T08:47:51;99316.38;;;32.89;18.06
73870;BME280;64924;42.140;24.762;2023-04-30T08:50:16;99333.63;;;32.87;18.31
73870;BME280;64924;42.140;24.762;2023-04-30T08:52:42;99324.13;;;32.92;18.19
73870;BME280;64924;42.140;24.762;2023-04-30T08:55:08;99328.66;;;32.72;18.12
73870;BME280;64924;42.140;24.762;2023-04-30T08:57:35;99296.41;;;32.58;18.53
73870;BME280;64924;42.140;24.762;2023-04-30T09:00:02;99329.94;;;32.63;18.36
73870;BME280;64924;42.140;24.762;2023-04-30T09:02:31;99313.66;;;31.36;19.29
73870;BME280;64924;42.140;24.762;2023-04-30T09:04:56;99324.44;;;31.05;19.96
73870;BME280;64924;42.140;24.762;2023-04-30T09:07:23;99325.81;;;30.61;19.92
73870;BME280;64924;42.140;24.762;2023-04-30T09:09:52;99320.00;;;30.19;19.51
73870;BME280;64924;42.140;24.762;2023-04-30T09:12:18;99324.00;;;29.83;19.32
73870;BME280;64924;42.140;24.762;2023-04-30T09:14:57;99312.47;;;29.76;19.65
73870;BME280;64924;42.140;24.762;2023-04-30T09:17:24;99321.53;;;29.30;20.00
73870;BME280;64924;42.140;24.762;2023-04-30T09:19:51;99301.09;;;28.95;20.59
73870;BME280;64924;42.140;24.762;2023-04-30T09:22:21;99317.53;;;28.97;20.92
73870;BME280;64924;42.140;24.762;2023-04-30T09:24:49;99313.66;;;28.75;21.03
73870;BME280;64924;42.140;24.762;2023-04-30T09:27:20;99318.53;;;28.52;21.35
73870;BME280;64924;42.140;24.762;2023-04-30T09:29:46;99309.75;;;28.37;21.47
73870;BME280;64924;42.140;24.762;2023-04-30T09:32:12;99304.88;;;28.51;21.52
73870;BME280;64924;42.140;24.762;2023-04-30T09:34:38;99307.13;;;28.40;20.89
73870;BME280;64924;42.140;24.762;2023-04-30T09:37:04;99303.56;;;28.48;20.67
73870;BME280;64924;42.140;24.762;2023-04-30T09:39:30;99307.72;;;28.28;20.90
73870;BME280;64924;42.140;24.762;2023-04-30T09:42:09;99262.69;;;28.21;20.97
73870;BME280;64924;42.140;24.762;2023-04-30T09:44:37;99300.72;;;28.09;21.31
73870;BME280;64924;42.140;24.762;2023-04-30T09:47:02;99292.03;;;27.88;21.54
73870;BME280;64924;42.140;24.762;2023-04-30T09:49:29;99279.38;;;28.13;20.93
73870;BME280;64924;42.140;24.762;2023-04-30T09:51:54;99276.47;;;28.26;21.02
73870;BME280;64924;42.140;24.762;2023-04-30T09:54:25;99280.78;;;28.33;20.79
73870;BME280;64924;42.140;24.762;2023-04-30T09:56:57;99285.06;;;28.30;20.98
73870;BME280;64924;42.140;24.762;2023-04-30T09:59:28;99276.84;;;28.03;21.05
73870;BME280;64924;42.140;24.762;2023-04-30T10:02:00;99284.63;;;27.83;21.29
73870;BME280;64924;42.140;24.762;2023-04-30T10:04:36;99267.59;;;27.93;21.31
73870;BME280;64924;42.140;24.762;2023-04-30T10:07:08;99237.09;;;27.75;21.18
73870;BME280;64924;42.140;24.762;2023-04-30T10:09:40;99264.94;;;27.88;21.31
73870;BME280;64924;42.140;24.762;2023-04-30T10:12:13;99273.78;;;27.59;21.69
73870;BME280;64924;42.140;24.762;2023-04-30T10:14:41;99271.72;;;27.51;21.93
73870;BME280;64924;42.140;24.762;2023-04-30T10:17:13;99268.78;;;27.70;21.78
73870;BME280;64924;42.140;24.762;2023-04-30T10:19:45;99264.84;;;27.71;21.55
73870;BME280;64924;42.140;24.762;2023-04-30T10:22:12;99259.19;;;27.62;21.24
73870;BME280;64924;42.140;24.762;2023-04-30T10:24:38;99252.28;;;27.91;21.66
73870;BME280;64924;42.140;24.762;2023-04-30T10:27:04;99259.91;;;27.99;21.47
73870;BME280;64924;42.140;24.762;2023-04-30T10:29:30;99250.13;;;27.79;21.51
73870;BME280;64924;42.140;24.762;2023-04-30T10:31:56;99252.47;;;27.94;21.37
73870;BME280;64924;42.140;24.762;2023-04-30T10:37:34;99256.22;;;27.23;22.38
73870;BME280;64924;42.140;24.762;2023-04-30T10:39:58;99230.72;;;26.80;22.89
73870;BME280;64924;42.140;24.762;2023-04-30T10:42:23;99240.50;;;27.05;22.76
73870;BME280;64924;42.140;24.762;2023-04-30T10:44:49;99250.56;;;27.14;22.63
73870;BME280;64924;42.140;24.762;2023-04-30T10:47:15;99244.97;;;27.28;22.50
73870;BME280;64924;42.140;24.762;2023-04-30T10:49:48;99247.00;;;27.36;22.30
73870;BME280;64924;42.140;24.762;2023-04-30T10:52:25;99200.13;;;27.02;22.68
73870;BME280;64924;42.140;24.762;2023-04-30T10:54:51;99250.22;;;27.29;22.67
73870;BME280;64924;42.140;24.762;2023-04-30T10:57:19;99201.78;;;27.03;22.91
73870;BME280;64924;42.140;24.762;2023-04-30T11:02:17;99235.56;;;27.24;22.83
73870;BME280;64924;42.140;24.762;2023-04-30T11:07:30;99238.97;;;27.21;22.87
73870;BME280;64924;42.140;24.762;2023-04-30T11:09:56;99236.41;;;27.24;22.93
73870;BME280;64924;42.140;24.762;2023-04-30T11:12:26;99239.69;;;27.49;22.73
73870;BME280;64924;42.140;24.762;2023-04-30T11:17:36;99219.34;;;27.26;22.82
73870;BME280;64924;42.140;24.762;2023-04-30T11:20:03;99232.16;;;27.05;23.30
73870;BME280;64924;42.140;24.762;2023-04-30T11:22:29;99241.34;;;26.91;23.26
73870;BME280;64924;42.140;24.762;2023-04-30T11:25:06;99218.50;;;26.53;23.87
73870;BME280;64924;42.140;24.762;2023-04-30T11:27:34;99217.88;;;26.56;23.89
73870;BME280;64924;42.140;24.762;2023-04-30T11:30:01;99204.38;;;26.36;24.01
73870;BME280;64924;42.140;24.762;2023-04-30T11:32:33;99225.41;;;26.56;24.06
73870;BME280;64924;42.140;24.762;2023-04-30T11:35:00;99206.53;;;26.53;24.43
73870;BME280;64924;42.140;24.762;2023-04-30T11:37:36;99203.97;;;26.79;23.92
73870;BME280;64924;42.140;24.762;2023-04-30T11:40:07;99215.09;;;27.06;23.39
73870;BME280;64924;42.140;24.762;2023-04-30T11:42:36;99203.47;;;27.13;22.79
73870;BME280;64924;42.140;24.762;2023-04-30T11:45:07;99198.59;;;27.18;22.79
73870;BME280;64924;42.140;24.762;2023-04-30T11:50:09;99188.47;;;27.00;22.96
73870;BME280;64924;42.140;24.762;2023-04-30T11:52:35;99201.81;;;26.76;23.36
73870;BME280;64924;42.140;24.762;2023-04-30T11:55:04;99204.69;;;26.84;23.40
73870;BME280;64924;42.140;24.762;2023-04-30T11:57:40;99198.38;;;26.92;23.57
73870;BME280;64924;42.140;24.762;2023-04-30T12:00:09;99175.25;;;26.56;23.24
73870;BME280;64924;42.140;24.762;2023-04-30T12:02:35;99178.84;;;26.56;23.03
73870;BME280;64924;42.140;24.762;2023-04-30T12:05:01;99195.97;;;26.63;23.20
73870;BME280;64924;42.140;24.762;2023-04-30T12:07:26;99189.34;;;26.73;23.37
73870;BME280;64924;42.140;24.762;2023-04-30T12:09:53;99175.25;;;26.42;23.31
73870;BME280;64924;42.140;24.762;2023-04-30T12:12:31;99171.66;;;26.28;23.73
73870;BME280;64924;42.140;24.762;2023-04-30T12:14:56;99176.19;;;26.10;23.83
73870;BME280;64924;42.140;24.762;2023-04-30T12:17:34;99172.72;;;26.32;23.86
73870;BME280;64924;42.140;24.762;2023-04-30T12:20:00;99175.78;;;26.17;24.21
73870;BME280;64924;42.140;24.762;2023-04-30T12:22:26;99169.81;;;26.23;24.02
73870;BME280;64924;42.140;24.762;2023-04-30T12:24:54;99168.88;;;26.14;24.20
73870;BME280;64924;42.140;24.762;2023-04-30T12:27:21;99175.38;;;26.10;24.19
73870;BME280;64924;42.140;24.762;2023-04-30T12:29:46;99176.84;;;25.93;24.71
73870;BME280;64924;42.140;24.762;2023-04-30T12:32:16;99178.34;;;25.72;25.04
73870;BME280;64924;42.140;24.762;2023-04-30T12:34:43;99186.91;;;25.43;26.53
73870;BME280;64924;42.140;24.762;2023-04-30T12:37:09;99212.31;;;25.04;28.74
73870;BME280;64924;42.140;24.762;2023-04-30T12:39:35;99194.69;;;24.10;32.86
73870;BME280;64924;42.140;24.762;2023-04-30T12:42:01;99269.41;;;23.77;34.10
73870;BME280;64924;42.140;24.762;2023-04-30T12:44:28;99253.53;;;23.15;35.96
73870;BME280;64924;42.140;24.762;2023-04-30T12:46:57;99260.69;;;22.72;35.42
73870;BME280;64924;42.140;24.762;2023-04-30T12:49:34;99266.91;;;22.53;35.48
73870;BME280;64924;42.140;24.762;2023-04-30T12:52:05;99236.91;;;21.96;40.12
73870;BME280;64924;42.140;24.762;2023-04-30T12:54:33;99227.56;;;21.77;38.71
73870;BME280;64924;42.140;24.762;2023-04-30T12:57:03;99174.19;;;21.76;38.21
73870;BME280;64924;42.140;24.762;2023-04-30T12:59:30;99205.53;;;22.31;39.29
73870;BME280;64924;42.140;24.762;2023-04-30T13:02:07;99194.34;;;22.56;38.81
73870;BME280;64924;42.140;24.762;2023-04-30T13:04:33;99176.31;;;22.10;39.04
73870;BME280;64924;42.140;24.762;2023-04-30T13:07:00;99181.09;;;21.74;39.51
73870;BME280;64924;42.140;24.762;2023-04-30T13:09:25;99184.97;;;21.62;40.36
73870;BME280;64924;42.140;24.762;2023-04-30T13:11:51;99190.28;;;21.28;43.26
73870;BME280;64924;42.140;24.762;2023-04-30T13:14:16;99205.19;;;21.17;43.49
73870;BME280;64924;42.140;24.762;2023-04-30T13:16:42;99203.00;;;21.29;43.81
73870;BME280;64924;42.140;24.762;2023-04-30T13:19:08;99195.53;;;21.05;45.19
73870;BME280;64924;42.140;24.762;2023-04-30T13:21:34;99190.25;;;20.98;44.10
73870;BME280;64924;42.140;24.762;2023-04-30T13:23:59;99165.81;;;20.29;44.01
73870;BME280;64924;42.140;24.762;2023-04-30T13:26:26;99221.63;;;20.46;45.18